Time,TemperatureF,DewpointF,PressureIn,WindDirection,WindDirectionDegrees,WindSpeedMPH,WindSpeedGustMPH,Humidity,HourlyPrecipIn,Conditions,Clouds,dailyrainin,SolarRadiationWatts/m^2,SoftwareType,DateUTC
2013-09-24 00:03:00,61.0,29.0,-100.00,NW,325,12.0,12.0,29,0.00,,,0.00,0.000000,,2013-09-24 07:03:00,
2013-09-24 00:12:00,61.0,29.0,-100.00,NW,325,12.0,12.0,29,0.00,,,0.00,0.000000,,2013-09-24 07:12:00,
2013-09-24 00:52:00,60.0,32.0,-100.00,NW,320,14.0,14.0,35,0.00,,,0.00,0.000000,,2013-09-24 07:52:00,
2013-09-24 01:02:00,60.0,32.0,-100.00,NW,320,14.0,14.0,35,0.00,,,0.00,0.000000,,2013-09-24 08:02:00,
2013-09-24 01:11:00,60.0,32.0,-100.00,NW,320,14.0,14.0,35,0.00,,,0.00,0.000000,,2013-09-24 08:11:00,
2013-09-24 01:22:00,60.0,32.0,-100.00,NW,320,14.0,14.0,35,0.00,,,0.00,0.000000,,2013-09-24 08:22:00,
2013-09-24 01:52:00,58.0,34.0,-100.00,NW,319,18.0,18.0,40,0.00,,,0.00,0.000000,,2013-09-24 08:52:00,
2013-09-24 02:01:00,58.0,34.0,-100.00,NW,319,18.0,18.0,40,0.00,,,0.00,0.000000,,2013-09-24 09:01:00,
2013-09-24 02:11:00,58.0,34.0,-100.00,NW,319,18.0,18.0,40,0.00,,,0.00,0.000000,,2013-09-24 09:11:00,
2013-09-24 02:21:00,58.0,34.0,-100.00,NW,319,18.0,18.0,40,0.00,,,0.00,0.000000,,2013-09-24 09:21:00,
2013-09-24 02:54:00,56.0,33.0,-100.00,NW,310,18.0,21.0,41,0.00,,,0.00,0.000000,,2013-09-24 09:54:00,
2013-09-24 03:02:00,56.0,33.0,-100.00,NW,310,18.0,21.0,41,0.00,,,0.00,0.000000,,2013-09-24 10:02:00,
2013-09-24 03:13:00,56.0,33.0,-100.00,NW,310,18.0,21.0,41,0.00,,,0.00,0.000000,,2013-09-24 10:13:00,
2013-09-24 03:22:00,56.0,33.0,-100.00,NW,310,18.0,21.0,41,0.00,,,0.00,0.000000,,2013-09-24 10:22:00,
2013-09-24 03:53:00,55.0,29.0,-100.00,NW,305,20.0,21.0,37,0.00,,,0.00,0.000000,,2013-09-24 10:53:00,
2013-09-24 04:03:00,55.0,29.0,-100.00,NW,305,20.0,21.0,37,0.00,,,0.00,0.000000,,2013-09-24 11:03:00,
2013-09-24 04:11:00,55.0,29.0,-100.00,NW,305,20.0,21.0,37,0.00,,,0.00,0.000000,,2013-09-24 11:11:00,
2013-09-24 04:22:00,55.0,29.0,-100.00,NW,305,20.0,21.0,37,0.00,,,0.00,0.000000,,2013-09-24 11:22:00,
2013-09-24 04:52:00,56.0,27.0,-100.00,NW,306,20.0,23.0,33,0.00,,,0.00,0.000000,,2013-09-24 11:52:00,
2013-09-24 05:01:00,56.0,27.0,-100.00,NW,306,20.0,23.0,33,0.00,,,0.00,0.000000,,2013-09-24 12:01:00,
2013-09-24 05:12:00,56.0,27.0,-100.00,NW,306,20.0,23.0,33,0.00,,,0.00,0.000000,,2013-09-24 12:12:00,
2013-09-24 05:21:00,56.0,27.0,-100.00,NW,306,20.0,23.0,33,0.00,,,0.00,0.000000,,2013-09-24 12:21:00,
2013-09-24 05:52:00,55.0,28.0,-100.00,NW,304,20.0,26.0,35,0.00,,,0.00,0.000000,,2013-09-24 12:52:00,
2013-09-24 06:01:00,55.0,28.0,-100.00,NW,304,20.0,26.0,35,0.00,,,0.00,0.000000,,2013-09-24 13:01:00,
2013-09-24 06:11:00,55.0,28.0,-100.00,NW,304,20.0,26.0,35,0.00,,,0.00,0.000000,,2013-09-24 13:11:00,
2013-09-24 06:21:00,55.0,28.0,-100.00,NW,304,20.0,26.0,35,0.00,,,0.00,0.000000,,2013-09-24 13:21:00,
2013-09-24 06:52:00,56.0,27.0,-100.00,WNW,300,20.0,23.0,33,0.00,,,0.00,0.000000,,2013-09-24 13:52:00,
2013-09-24 07:02:00,56.0,27.0,-100.00,WNW,300,20.0,23.0,33,0.00,,,0.00,0.000000,,2013-09-24 14:02:00,
2013-09-24 07:12:00,56.0,27.0,-100.00,WNW,300,20.0,23.0,33,0.00,,,0.00,0.000000,,2013-09-24 14:12:00,
2013-09-24 07:21:00,56.0,27.0,-100.00,WNW,300,20.0,23.0,33,0.00,,,0.00,0.000000,,2013-09-24 14:21:00,
2013-09-24 07:52:00,56.0,24.0,-100.00,WNW,297,22.0,24.0,29,0.00,,,0.00,0.000000,,2013-09-24 14:52:00,
2013-09-24 08:01:00,56.0,24.0,-100.00,WNW,297,22.0,24.0,29,0.00,,,0.00,0.000000,,2013-09-24 15:01:00,
2013-09-24 08:11:00,56.0,24.0,-100.00,WNW,297,22.0,24.0,29,0.00,,,0.00,0.000000,,2013-09-24 15:11:00,
2013-09-24 08:22:00,56.0,24.0,-100.00,WNW,297,22.0,24.0,29,0.00,,,0.00,0.000000,,2013-09-24 15:22:00,
2013-09-24 08:54:00,58.0,25.0,-100.00,NW,309,18.0,27.0,28,0.00,,,0.00,39.000000,,2013-09-24 15:54:00,
2013-09-24 09:03:00,58.0,25.0,-100.00,NW,309,18.0,27.0,28,0.00,,,0.00,39.000000,,2013-09-24 16:03:00,
2013-09-24 09:13:00,58.0,25.0,-100.00,NW,309,18.0,27.0,28,0.00,,,0.00,39.000000,,2013-09-24 16:13:00,
2013-09-24 09:22:00,58.0,25.0,-100.00,NW,309,18.0,27.0,28,0.00,,,0.00,39.000000,,2013-09-24 16:22:00,
2013-09-24 09:53:00,58.0,23.0,-100.00,NW,308,20.0,26.0,26,0.00,,,0.00,293.000000,,2013-09-24 16:53:00,
2013-09-24 10:02:00,58.0,23.0,-100.00,NW,308,20.0,26.0,26,0.00,,,0.00,293.000000,,2013-09-24 17:02:00,
2013-09-24 10:13:00,58.0,23.0,-100.00,NW,308,20.0,26.0,26,0.00,,,0.00,293.000000,,2013-09-24 17:13:00,
2013-09-24 10:23:00,58.0,23.0,-100.00,NW,308,20.0,26.0,26,0.00,,,0.00,293.000000,,2013-09-24 17:23:00,
2013-09-24 10:54:00,58.0,20.0,-100.00,WNW,302,19.0,25.0,23,0.00,,,0.00,148.000000,,2013-09-24 17:54:00,
2013-09-24 11:03:00,58.0,20.0,-100.00,WNW,302,19.0,25.0,23,0.00,,,0.00,148.000000,,2013-09-24 18:03:00,
2013-09-24 11:12:00,58.0,20.0,-100.00,WNW,302,19.0,25.0,23,0.00,,,0.00,148.000000,,2013-09-24 18:12:00,
2013-09-24 11:22:00,58.0,20.0,-100.00,WNW,302,19.0,25.0,23,0.00,,,0.00,148.000000,,2013-09-24 18:22:00,
2013-09-24 11:52:00,61.0,13.0,-100.00,WNW,303,19.0,27.0,15,0.00,,,0.00,717.000000,,2013-09-24 18:52:00,
2013-09-24 12:01:00,61.0,13.0,-100.00,WNW,303,19.0,27.0,15,0.00,,,0.00,717.000000,,2013-09-24 19:01:00,
2013-09-24 12:11:00,61.0,13.0,-100.00,WNW,303,19.0,27.0,15,0.00,,,0.00,717.000000,,2013-09-24 19:11:00,
2013-09-24 12:22:00,61.0,13.0,-100.00,WNW,303,19.0,27.0,15,0.00,,,0.00,717.000000,,2013-09-24 19:22:00,
2013-09-24 12:52:00,65.0,7.0,-100.00,WNW,287,25.0,28.0,10,0.00,,,0.00,994.000000,,2013-09-24 19:52:00,
2013-09-24 13:02:00,65.0,7.0,-100.00,WNW,287,25.0,28.0,10,0.00,,,0.00,994.000000,,2013-09-24 20:02:00,
2013-09-24 13:11:00,65.0,7.0,-100.00,WNW,287,25.0,28.0,10,0.00,,,0.00,994.000000,,2013-09-24 20:11:00,
2013-09-24 13:22:00,65.0,7.0,-100.00,WNW,287,25.0,28.0,10,0.00,,,0.00,994.000000,,2013-09-24 20:22:00,
2013-09-24 14:21:00,66.0,6.0,-100.00,West,278,21.0,38.0,9,0.00,,,0.00,1089.000000,,2013-09-24 21:21:00,
2013-09-24 16:53:00,72.0,10.0,-100.00,WNW,282,31.0,39.0,9,0.00,,,0.00,901.000000,,2013-09-24 23:53:00,
2013-09-24 17:02:00,72.0,10.0,-100.00,WNW,282,31.0,39.0,9,0.00,,,0.00,901.000000,,2013-09-25 00:02:00,
2013-09-24 17:12:00,72.0,10.0,-100.00,WNW,282,31.0,39.0,9,0.00,,,0.00,901.000000,,2013-09-25 00:12:00,
2013-09-24 17:22:00,72.0,10.0,-100.00,WNW,282,31.0,39.0,9,0.00,,,0.00,901.000000,,2013-09-25 00:22:00,
2013-09-24 17:52:00,70.0,19.0,-100.00,West,276,29.0,40.0,14,0.00,,,0.00,692.000000,,2013-09-25 00:52:00,
2013-09-24 18:02:00,70.0,19.0,-100.00,West,276,29.0,40.0,14,0.00,,,0.00,692.000000,,2013-09-25 01:02:00,
2013-09-24 18:12:00,70.0,19.0,-100.00,West,276,29.0,40.0,14,0.00,,,0.00,692.000000,,2013-09-25 01:12:00,
2013-09-24 18:21:00,70.0,19.0,-100.00,West,276,29.0,40.0,14,0.00,,,0.00,692.000000,,2013-09-25 01:21:00,
2013-09-24 18:52:00,66.0,19.0,-100.00,West,272,26.0,46.0,16,0.00,,,0.00,441.000000,,2013-09-25 01:52:00,
2013-09-24 19:02:00,66.0,19.0,-100.00,West,272,26.0,46.0,16,0.00,,,0.00,441.000000,,2013-09-25 02:02:00,
2013-09-24 19:11:00,66.0,19.0,-100.00,West,272,26.0,46.0,16,0.00,,,0.00,441.000000,,2013-09-25 02:11:00,
2013-09-24 19:21:00,66.0,19.0,-100.00,West,272,26.0,46.0,16,0.00,,,0.00,441.000000,,2013-09-25 02:21:00,
2013-09-24 19:52:00,64.0,14.0,-100.00,WNW,282,36.0,44.0,14,0.00,,,0.00,64.000000,,2013-09-25 02:52:00,
2013-09-24 20:02:00,64.0,14.0,-100.00,WNW,282,36.0,44.0,14,0.00,,,0.00,64.000000,,2013-09-25 03:02:00,
2013-09-24 20:11:00,64.0,14.0,-100.00,WNW,282,36.0,44.0,14,0.00,,,0.00,64.000000,,2013-09-25 03:11:00,
2013-09-24 20:23:00,64.0,14.0,-100.00,WNW,282,36.0,44.0,14,0.00,,,0.00,64.000000,,2013-09-25 03:23:00,
2013-09-24 20:54:00,61.0,11.0,-100.00,West,281,42.0,48.0,14,0.00,,,0.00,4.000000,,2013-09-25 03:54:00,
2013-09-24 21:04:00,61.0,11.0,-100.00,West,281,42.0,48.0,14,0.00,,,0.00,4.000000,,2013-09-25 04:04:00,
2013-09-24 21:14:00,61.0,11.0,-100.00,West,281,42.0,48.0,14,0.00,,,0.00,4.000000,,2013-09-25 04:14:00,
2013-09-24 21:24:00,61.0,11.0,-100.00,West,281,42.0,48.0,14,0.00,,,0.00,4.000000,,2013-09-25 04:24:00,
2013-09-24 21:54:00,58.0,19.0,-100.00,WNW,282,40.0,56.0,22,-99.99,,,0.00,0.000000,,2013-09-25 04:54:00,
2013-09-24 22:03:00,58.0,19.0,-100.00,WNW,282,40.0,56.0,22,-99.99,,,0.00,0.000000,,2013-09-25 05:03:00,
2013-09-24 22:12:00,58.0,19.0,-100.00,WNW,282,40.0,56.0,22,-99.99,,,0.00,0.000000,,2013-09-25 05:12:00,
2013-09-24 22:23:00,58.0,19.0,-100.00,WNW,282,40.0,56.0,22,-99.99,,,0.00,0.000000,,2013-09-25 05:23:00,
2013-09-24 22:53:00,57.0,30.0,-100.00,West,281,46.0,55.0,36,0.00,,,0.00,0.000000,,2013-09-25 05:53:00,
2013-09-24 23:02:00,57.0,30.0,-100.00,West,281,46.0,55.0,36,0.00,,,0.00,0.000000,,2013-09-25 06:02:00,
2013-09-24 23:13:00,57.0,30.0,-100.00,West,281,46.0,55.0,36,0.00,,,0.00,0.000000,,2013-09-25 06:13:00,
2013-09-24 23:23:00,57.0,30.0,-100.00,West,281,46.0,55.0,36,0.00,,,0.00,0.000000,,2013-09-25 06:23:00,
2013-09-24 23:52:00,56.0,37.0,-100.00,West,281,42.0,60.0,48,0.00,,,0.00,0.000000,,2013-09-25 06:52:00,